Time;durP1;ratioP1;P1;durP2;ratioP2;P2;SDS_P1;SDS_P2;PMS_P1;PMS_P2;Temp;Humidity;BMP_temperature;BMP_pressure;BME280_temperature;BME280_humidity;BME280_pressure;Samples;Min_cycle;Max_cycle;Signal;HPM_P1;HPM_P2
2023/03/04 00:00:10;;;;;;;16.55;5.55;;;;;;;13.12;100.00;101398.91;2089302;28;20052;-81
2023/03/04 00:01:33;;;;;;;17.17;7.20;;;;;;;13.14;100.00;101399.81;2088013;28;20114;-81
2023/03/04 00:02:56;;;;;;;17.67;5.25;;;;;;;13.15;100.00;101389.25;2095394;28;20040;-81
2023/03/04 00:04:18;;;;;;;14.98;5.97;;;;;;;13.16;100.00;101395.44;2103261;28;20052;-81
2023/03/04 00:05:40;;;;;;;17.23;6.55;;;;;;;13.18;100.00;101403.44;2089694;28;20328;-82
2023/03/04 00:07:01;;;;;;;14.63;5.45;;;;;;;13.19;100.00;101397.25;2095332;28;20361;-82
2023/03/04 00:08:23;;;;;;;13.50;5.57;;;;;;;13.19;100.00;101405.22;2095148;28;20547;-82
2023/03/04 00:09:45;;;;;;;17.40;5.85;;;;;;;13.19;100.00;101408.75;2086526;28;20501;-82
2023/03/04 00:11:08;;;;;;;14.07;5.40;;;;;;;13.17;100.00;101397.22;2088129;28;20048;-81
2023/03/04 00:12:29;;;;;;;12.50;5.18;;;;;;;13.16;100.00;101399.00;2089268;28;20056;-81
2023/03/04 00:13:51;;;;;;;16.95;6.00;;;;;;;13.14;100.00;101392.75;2078799;28;20398;-81
2023/03/04 00:15:13;;;;;;;14.73;5.47;;;;;;;13.12;100.00;101391.88;2076436;28;20406;-81
2023/03/04 00:16:35;;;;;;;18.40;5.45;;;;;;;13.11;100.00;101397.09;2083920;28;20044;-82
2023/03/04 00:17:59;;;;;;;15.63;6.40;;;;;;;13.09;100.00;101389.13;2089449;28;20152;-82
2023/03/04 00:19:20;;;;;;;20.48;6.47;;;;;;;13.08;100.00;101391.75;2087329;28;20505;-81
2023/03/04 00:20:42;;;;;;;15.85;5.75;;;;;;;13.09;100.00;101388.22;2086801;28;20044;-81
2023/03/04 00:22:05;;;;;;;10.75;5.10;;;;;;;13.09;100.00;101390.88;2095351;28;20048;-81
2023/03/04 00:23:26;;;;;;;12.73;5.78;;;;;;;13.09;100.00;101380.28;2081270;28;20053;-81
2023/03/04 00:24:48;;;;;;;16.63;6.03;;;;;;;13.09;100.00;101389.13;2084137;28;20044;-81
2023/03/04 00:26:10;;;;;;;19.65;6.18;;;;;;;13.12;100.00;101383.00;2086915;28;20048;-81
2023/03/04 00:27:33;;;;;;;17.65;5.95;;;;;;;13.13;100.00;101375.06;2078629;28;20037;-81
2023/03/04 00:28:56;;;;;;;19.00;6.03;;;;;;;13.12;100.00;101369.75;2078448;28;20048;-81
2023/03/04 00:30:17;;;;;;;13.23;5.38;;;;;;;13.10;100.00;101375.00;2078594;28;20053;-81
2023/03/04 00:31:40;;;;;;;21.27;6.15;;;;;;;13.09;100.00;101364.38;2092330;28;20055;-81
2023/03/04 00:33:03;;;;;;;21.25;5.72;;;;;;;13.11;100.00;101371.50;2089239;28;20037;-80
2023/03/04 00:34:26;;;;;;;17.65;5.85;;;;;;;13.10;100.00;101364.41;2089482;28;20060;-81
2023/03/04 00:35:47;;;;;;;16.85;6.75;;;;;;;13.07;100.00;101363.44;2086936;28;20037;-81
2023/03/04 00:37:09;;;;;;;17.60;6.13;;;;;;;13.04;100.00;101368.72;2077889;28;20053;-81
2023/03/04 00:38:31;;;;;;;13.35;5.40;;;;;;;13.02;100.00;101370.44;2078538;28;20456;-81
2023/03/04 00:39:53;;;;;;;17.48;5.50;;;;;;;13.01;100.00;101371.31;2086866;28;20044;-81
2023/03/04 00:41:14;;;;;;;21.13;6.15;;;;;;;12.99;100.00;101370.41;2086427;28;20421;-81
2023/03/04 00:42:37;;;;;;;21.40;6.32;;;;;;;12.98;100.00;101374.81;2097566;28;20118;-80
2023/03/04 00:43:58;;;;;;;14.75;5.32;;;;;;;12.97;100.00;101367.75;2081102;28;20323;-81
2023/03/04 00:45:21;;;;;;;15.48;5.88;;;;;;;12.96;100.00;101367.72;2091959;28;20102;-80
2023/03/04 00:46:42;;;;;;;17.88;5.90;;;;;;;12.95;100.00;101366.81;2089434;28;20106;-80
2023/03/04 00:48:06;;;;;;;18.17;5.22;;;;;;;12.92;100.00;101358.84;2086180;28;20041;-81
2023/03/04 00:49:27;;;;;;;16.77;5.35;;;;;;;12.90;100.00;101363.22;2086402;28;20053;-81
2023/03/04 00:50:50;;;;;;;16.80;5.20;;;;;;;12.90;100.00;101363.22;2085879;28;20493;-82
2023/03/04 00:52:13;;;;;;;22.40;6.32;;;;;;;12.89;100.00;101357.88;2078187;28;20045;-82
2023/03/04 00:53:34;;;;;;;15.13;5.65;;;;;;;12.87;100.00;101360.50;2084113;28;20053;-83
2023/03/04 00:54:57;;;;;;;16.23;5.43;;;;;;;12.85;100.00;101364.91;2078554;28;20046;-83
2023/03/04 00:56:18;;;;;;;17.13;6.35;;;;;;;12.82;100.00;101362.19;2084275;28;20045;-82
2023/03/04 00:57:40;;;;;;;20.45;5.85;;;;;;;12.78;100.00;101357.72;2077778;28;20107;-82
2023/03/04 00:59:02;;;;;;;18.23;5.65;;;;;;;12.76;100.00;101357.69;2078353;28;20108;-83
2023/03/04 01:00:24;;;;;;;14.60;5.43;;;;;;;12.73;100.00;101349.66;2083928;28;20045;-81
2023/03/04 01:01:47;;;;;;;15.23;4.95;;;;;;;12.74;100.00;101353.22;2089311;28;20056;-81
2023/03/04 01:03:10;;;;;;;17.60;5.32;;;;;;;12.76;100.00;101348.84;2094797;28;20041;-81
2023/03/04 01:04:32;;;;;;;18.08;5.40;;;;;;;12.82;100.00;101350.69;2094952;28;20141;-81
2023/03/04 01:05:55;;;;;;;20.55;6.20;;;;;;;12.82;100.00;101342.75;2086474;28;20098;-82
2023/03/04 01:07:17;;;;;;;15.00;5.20;;;;;;;12.82;100.00;101343.63;2092406;28;20072;-81
2023/03/04 01:08:39;;;;;;;19.77;6.22;;;;;;;12.81;100.00;101335.66;2094811;28;20087;-81
2023/03/04 01:10:01;;;;;;;14.93;5.65;;;;;;;12.81;100.00;101343.59;2097649;28;20075;-81
2023/03/04 01:11:24;;;;;;;18.40;5.13;;;;;;;12.84;100.00;101335.72;2088981;28;20045;-81
2023/03/04 01:12:46;;;;;;;14.65;4.75;;;;;;;12.87;100.00;101327.81;2086425;28;20045;-81
2023/03/04 01:14:08;;;;;;;17.17;6.13;;;;;;;12.90;100.00;101330.50;2084262;28;20045;-81
2023/03/04 01:15:30;;;;;;;15.50;4.93;;;;;;;12.91;100.00;101332.31;2084058;28;20472;-82
2023/03/04 01:16:53;;;;;;;16.33;5.60;;;;;;;12.92;100.00;101336.75;2086522;28;20071;-81
2023/03/04 01:18:17;;;;;;;13.63;5.28;;;;;;;12.91;100.00;101332.31;2084139;28;20071;-81
2023/03/04 01:19:39;;;;;;;15.15;5.35;;;;;;;12.88;100.00;101330.47;2083405;28;20552;-81
2023/03/04 01:21:01;;;;;;;19.90;5.65;;;;;;;12.84;100.00;101323.38;2092135;28;20127;-81
2023/03/04 01:22:23;;;;;;;18.50;5.15;;;;;;;12.81;100.00;101328.59;2095095;28;20049;-81
2023/03/04 01:23:46;;;;;;;16.13;5.07;;;;;;;12.80;100.00;101326.81;2094704;28;20040;-81
2023/03/04 01:25:09;;;;;;;15.00;6.10;;;;;;;12.78;100.00;101318.88;2086387;28;20151;-81
2023/03/04 01:26:32;;;;;;;17.75;5.78;;;;;;;12.75;100.00;101321.47;2086451;28;20059;-81
2023/03/04 01:27:53;;;;;;;13.07;4.72;;;;;;;12.76;100.00;101327.66;2083676;28;20041;-81
2023/03/04 01:29:15;;;;;;;15.18;5.90;;;;;;;12.75;100.00;101324.09;2083550;28;20052;-80
2023/03/04 01:30:36;;;;;;;11.40;4.90;;;;;;;12.77;100.00;101317.09;2092127;28;20056;-79
2023/03/04 01:31:59;;;;;;;17.23;5.28;;;;;;;12.84;100.00;101309.22;2094534;28;20503;-80
2023/03/04 01:33:23;;;;;;;11.70;4.45;;;;;;;12.89;100.00;101319.03;2085827;28;20033;-80
2023/03/04 01:34:44;;;;;;;13.07;4.32;;;;;;;12.90;100.00;101309.31;2076098;28;20131;-80
2023/03/04 01:36:07;;;;;;;12.00;4.63;;;;;;;12.90;100.00;101314.63;2078981;28;20048;-79
2023/03/04 01:37:28;;;;;;;13.07;5.47;;;;;;;12.92;100.00;101304.94;2091550;28;20094;-80
2023/03/04 01:38:50;;;;;;;16.63;5.35;;;;;;;12.94;100.00;101311.13;2085695;28;20128;-80
2023/03/04 01:40:13;;;;;;;12.57;4.95;;;;;;;12.94;100.00;101304.06;2091669;28;20381;-81
2023/03/04 01:41:35;;;;;;;12.27;4.32;;;;;;;12.95;100.00;101307.63;2086098;28;20057;-80
2023/03/04 01:42:57;;;;;;;11.93;4.20;;;;;;;12.97;100.00;101308.53;2083700;28;20049;-81
2023/03/04 01:44:19;;;;;;;17.25;5.35;;;;;;;12.98;100.00;101305.03;2091827;28;20040;-81
2023/03/04 01:45:41;;;;;;;18.48;4.60;;;;;;;12.98;100.00;101305.03;2088870;28;20143;-81
2023/03/04 01:47:02;;;;;;;12.45;4.88;;;;;;;12.97;100.00;101297.94;2094731;28;20381;-81
2023/03/04 01:48:30;;;;;;;13.43;4.53;;;;;;;12.96;100.00;101297.03;2092856;28;20052;-81
2023/03/04 01:49:55;;;;;;;12.98;4.35;;;;;;;12.94;100.00;101296.13;2086164;28;20524;-81
2023/03/04 01:51:20;;;;;;;13.38;4.78;;;;;;;12.92;100.00;101283.75;2085717;28;20052;-81
2023/03/04 01:52:41;;;;;;;17.63;5.20;;;;;;;12.90;100.00;101285.47;2083929;28;20071;-81
2023/03/04 01:54:05;;;;;;;14.00;4.60;;;;;;;12.90;100.00;101277.50;2083406;28;20063;-81
2023/03/04 01:55:27;;;;;;;15.57;5.15;;;;;;;12.90;100.00;101278.41;2083404;28;20079;-81
2023/03/04 01:56:51;;;;;;;16.15;5.75;;;;;;;12.94;100.00;101276.69;2083372;28;20049;-81
2023/03/04 01:58:12;;;;;;;21.30;6.03;;;;;;;12.97;100.00;101274.97;2091932;28;20082;-82
2023/03/04 01:59:37;;;;;;;11.48;4.45;;;;;;;13.00;100.00;101279.41;2086217;28;20076;-81
2023/03/04 02:00:59;;;;;;;12.10;4.35;;;;;;;12.99;100.00;101280.31;2092134;28;20488;-81
2023/03/04 02:02:20;;;;;;;15.85;4.72;;;;;;;12.99;100.00;101275.00;2096967;28;20052;-82
2023/03/04 02:03:44;;;;;;;16.08;4.88;;;;;;;12.99;100.00;101267.06;2102834;28;20032;-84
2023/03/04 02:05:06;;;;;;;16.17;4.53;;;;;;;12.98;100.00;101273.22;2088617;28;20044;-80
2023/03/04 02:06:28;;;;;;;12.68;4.43;;;;;;;12.96;100.00;101275.84;2094622;28;20143;-81
2023/03/04 02:07:50;;;;;;;13.90;4.20;;;;;;;12.95;100.00;101281.13;2085834;28;20049;-80
2023/03/04 02:09:15;;;;;;;13.77;4.63;;;;;;;12.94;100.00;101279.34;2091274;28;20044;-81
2023/03/04 02:10:38;;;;;;;15.73;4.90;;;;;;;12.94;100.00;101276.69;2078609;28;20207;-80
2023/03/04 02:12:00;;;;;;;14.68;4.25;;;;;;;12.95;100.00;101275.81;2083578;28;20335;-81
2023/03/04 02:13:23;;;;;;;;;;;;;;;12.91;100.00;101274.00;2086425;28;20107;-81
2023/03/04 02:14:46;;;;;;;12.30;4.40;;;;;;;12.94;100.00;101272.28;2078189;28;19929;-80
2023/03/04 02:16:08;;;;;;;13.48;4.07;;;;;;;12.97;100.00;101279.38;2086217;28;20076;-81
2023/03/04 02:17:31;;;;;;;8.38;3.88;;;;;;;13.01;100.00;101275.91;2077537;28;20049;-81
2023/03/04 02:18:56;;;;;;;18.20;3.90;;;;;;;13.05;100.00;101275.09;2092442;28;20134;-81
2023/03/04 02:20:27;;;;;;;15.93;3.47;;;;;;;13.04;100.00;101273.31;2080405;28;20537;-81
2023/03/04 02:21:48;;;;;;;12.02;4.00;;;;;;;13.01;100.00;101274.16;2094102;28;20053;-81
2023/03/04 02:23:19;;;;;;;15.52;4.30;;;;;;;13.01;100.00;101263.53;2080245;28;20045;-81
2023/03/04 02:24:47;;;;;;;20.00;5.03;;;;;;;13.01;100.00;101265.28;2087417;28;20102;-81
2023/03/04 02:26:14;;;;;;;12.00;3.38;;;;;;;13.02;100.00;101259.13;2078223;28;20819;-81
2023/03/04 02:27:36;;;;;;;12.07;3.90;;;;;;;13.01;100.00;101262.66;2076098;28;20053;-82
2023/03/04 02:29:00;;;;;;;14.75;4.03;;;;;;;13.01;100.00;101258.25;2085868;28;20043;-81
2023/03/04 02:30:24;;;;;;;13.60;4.55;;;;;;;13.02;100.00;101264.44;2080358;28;20117;-81
2023/03/04 02:31:48;;;;;;;12.77;4.00;;;;;;;13.02;100.00;101261.78;2075894;28;20049;-81
2023/03/04 02:33:16;;;;;;;18.63;5.30;;;;;;;13.04;100.00;101268.00;2086496;28;20052;-82
2023/03/04 02:34:40;;;;;;;11.38;4.20;;;;;;;13.04;100.00;101274.19;2088341;28;20292;-82
2023/03/04 02:36:01;;;;;;;18.08;4.38;;;;;;;13.06;100.00;101264.47;2077835;28;20053;-83
2023/03/04 02:37:24;;;;;;;9.10;4.00;;;;;;;13.09;100.00;101266.31;2091657;28;20146;-83
2023/03/04 02:38:48;;;;;;;11.65;3.35;;;;;;;13.12;100.00;101266.34;2080346;28;20494;-83
2023/03/04 02:40:16;;;;;;;19.63;5.53;;;;;;;13.16;100.00;101274.41;2077900;28;20458;-83
2023/03/04 02:41:40;;;;;;;12.60;4.05;;;;;;;13.14;100.00;101262.88;2086810;28;20085;-83
2023/03/04 02:43:01;;;;;;;12.60;4.75;;;;;;;13.10;100.00;101261.03;2080187;28;20041;-83
2023/03/04 02:44:26;;;;;;;16.67;5.22;;;;;;;13.06;100.00;101251.22;2080248;28;20049;-83
2023/03/04 02:45:50;;;;;;;13.38;5.22;;;;;;;13.03;100.00;101256.50;2092441;28;20055;-83
2023/03/04 02:47:14;;;;;;;18.73;5.40;;;;;;;13.03;100.00;101255.63;2080319;28;20080;-82
2023/03/04 02:48:36;;;;;;;18.05;5.13;;;;;;;13.02;100.00;101257.38;2082698;28;20037;-80
2023/03/04 02:49:59;;;;;;;17.70;5.13;;;;;;;13.01;100.00;101260.88;2077190;28;20049;-81
2023/03/04 02:51:21;;;;;;;19.10;5.47;;;;;;;13.00;100.00;101261.75;2082093;28;20049;-81
2023/03/04 02:52:43;;;;;;;18.95;6.03;;;;;;;12.99;100.00;101267.06;2084901;28;20084;-81
2023/03/04 02:54:15;;;;;;;13.00;4.50;;;;;;;12.98;100.00;101259.97;2085472;28;20133;-80
2023/03/04 02:55:36;;;;;;;13.52;5.45;;;;;;;12.97;100.00;101266.13;2086671;28;20079;-80
2023/03/04 02:57:02;;;;;;;13.13;4.93;;;;;;;12.97;100.00;101255.53;2085368;28;20047;-81
2023/03/04 02:58:26;;;;;;;21.95;5.50;;;;;;;12.97;100.00;101264.38;2077902;28;20053;-81
2023/03/04 02:59:48;;;;;;;13.27;4.55;;;;;;;13.00;100.00;101259.09;2074737;28;20046;-81
2023/03/04 03:01:14;;;;;;;12.02;5.30;;;;;;;13.04;100.00;101262.72;2084078;28;20163;-81
2023/03/04 03:02:36;;;;;;;14.05;4.65;;;;;;;13.04;100.00;101254.75;2077616;28;20037;-82
2023/03/04 03:03:58;;;;;;;16.83;5.65;;;;;;;13.04;100.00;101242.41;2082784;28;20456;-82
2023/03/04 03:05:19;;;;;;;15.00;5.28;;;;;;;13.04;100.00;101241.50;2077363;28;20076;-82
2023/03/04 03:06:42;;;;;;;12.48;5.22;;;;;;;13.01;100.00;101238.78;2080364;28;20047;-82
2023/03/04 03:08:06;;;;;;;13.02;4.85;;;;;;;12.98;100.00;101230.81;2074607;28;20168;-82
2023/03/04 03:09:28;;;;;;;15.45;5.00;;;;;;;12.95;100.00;101226.34;2085829;28;20145;-82
2023/03/04 03:10:51;;;;;;;17.13;4.47;;;;;;;12.96;100.00;101227.25;2079380;28;20125;-81
2023/03/04 03:12:15;;;;;;;13.55;4.47;;;;;;;12.98;100.00;101215.81;2085510;28;20045;-82
2023/03/04 03:13:37;;;;;;;15.80;4.45;;;;;;;12.99;100.00;101209.66;2083242;28;20048;-82
2023/03/04 03:14:58;;;;;;;13.63;5.00;;;;;;;13.02;100.00;101216.72;2083280;28;20095;-82
2023/03/04 03:16:21;;;;;;;14.95;5.00;;;;;;;13.06;100.00;101223.88;2082996;28;20048;-81
2023/03/04 03:17:44;;;;;;;11.57;4.15;;;;;;;13.13;100.00;101209.81;2083515;28;20517;-81
2023/03/04 03:19:07;;;;;;;13.50;4.13;;;;;;;13.19;100.00;101217.88;2085871;28;20145;-84
2023/03/04 03:20:31;;;;;;;15.07;4.68;;;;;;;13.26;100.00;101210.91;2083542;28;20044;-81
2023/03/04 03:21:52;;;;;;;11.10;3.88;;;;;;;13.32;100.00;101201.25;2094125;28;20040;-80
2023/03/04 03:23:16;;;;;;;13.77;4.65;;;;;;;13.37;100.00;101199.53;2086414;28;20056;-80
2023/03/04 03:24:38;;;;;;;11.80;4.32;;;;;;;13.42;100.00;101197.81;2085432;28;20055;-80
2023/03/04 03:26:01;;;;;;;14.52;3.63;;;;;;;13.47;100.00;101204.03;2084537;28;20110;-81
2023/03/04 03:27:24;;;;;;;12.20;4.07;;;;;;;13.54;100.00;101212.97;2084604;28;20132;-80
2023/03/04 03:28:47;;;;;;;14.02;4.90;;;;;;;13.58;100.00;101214.78;2087350;28;20059;-81
2023/03/04 03:30:10;;;;;;;18.77;4.70;;;;;;;13.62;100.00;101211.28;2093374;28;20041;-81
2023/03/04 03:31:33;;;;;;;13.38;4.80;;;;;;;13.65;100.00;101216.63;2087885;28;20076;-81
2023/03/04 03:32:54;;;;;;;14.95;4.70;;;;;;;13.68;100.00;101211.34;2092636;28;20037;-81
2023/03/04 03:34:16;;;;;;;12.38;3.92;;;;;;;13.72;100.00;101204.31;2087610;28;20134;-81
2023/03/04 03:35:39;;;;;;;14.13;3.83;;;;;;;13.74;100.00;101205.22;2093209;28;20055;-81
2023/03/04 03:37:00;;;;;;;15.35;4.60;;;;;;;13.78;100.00;101204.38;2087311;28;20047;-81
2023/03/04 03:38:22;;;;;;;8.35;4.25;;;;;;;13.79;100.00;101192.88;2093083;28;20045;-80
2023/03/04 03:39:44;;;;;;;13.63;4.32;;;;;;;13.83;100.00;101194.69;2095637;28;20544;-81
2023/03/04 03:41:06;;;;;;;12.30;4.32;;;;;;;13.85;100.00;101191.16;2095614;28;20129;-81
2023/03/04 03:42:29;;;;;;;15.25;4.65;;;;;;;13.85;100.00;101180.53;2095554;28;20396;-81
2023/03/04 03:43:51;;;;;;;10.98;3.60;;;;;;;13.87;100.00;101177.91;2095654;28;20040;-81
2023/03/04 03:45:12;;;;;;;15.63;5.25;;;;;;;13.87;100.00;101170.84;2087362;28;20067;-81
2023/03/04 03:46:34;;;;;;;15.45;5.07;;;;;;;13.89;100.00;101166.44;2084449;28;20048;-80
2023/03/04 03:47:57;;;;;;;18.45;4.65;;;;;;;13.90;100.00;101157.59;2084789;28;20135;-81
2023/03/04 03:49:18;;;;;;;14.75;4.68;;;;;;;13.92;100.00;101155.84;2090819;28;20053;-81
2023/03/04 03:50:40;;;;;;;9.82;3.25;;;;;;;13.92;100.00;101163.78;2094791;28;20044;-81
2023/03/04 03:52:02;;;;;;;12.00;4.80;;;;;;;13.95;100.00;101165.59;2086667;28;20032;-82
2023/03/04 03:53:24;;;;;;;11.23;3.30;;;;;;;13.96;100.00;101178.00;2092579;28;20052;-82
2023/03/04 03:54:45;;;;;;;16.42;4.82;;;;;;;13.98;100.00;101173.56;2095608;28;20404;-80
2023/03/04 03:56:08;;;;;;;17.55;5.45;;;;;;;13.97;100.00;101161.19;2095113;28;20050;-80
2023/03/04 03:57:31;;;;;;;15.77;4.60;;;;;;;13.97;100.00;101171.81;2094750;28;20048;-80
2023/03/04 03:58:53;;;;;;;13.00;5.38;;;;;;;13.98;100.00;101170.91;2087587;28;20041;-81
2023/03/04 04:00:17;;;;;;;15.05;5.25;;;;;;;13.98;100.00;101173.56;2084239;28;20127;-81
2023/03/04 04:01:38;;;;;;;15.40;5.25;;;;;;;13.96;100.00;101178.91;2100984;28;20161;-79
2023/03/04 04:03:01;;;;;;;10.60;5.10;;;;;;;13.98;100.00;101184.19;2089669;28;20033;-81
2023/03/04 04:04:22;;;;;;;13.73;4.60;;;;;;;13.99;100.00;101185.97;2095278;28;20045;-81
2023/03/04 04:05:45;;;;;;;16.13;5.72;;;;;;;14.00;100.00;101192.16;2095263;28;20099;-81
2023/03/04 04:07:06;;;;;;;11.27;4.00;;;;;;;13.99;100.00;101193.94;2103591;28;20052;-80
2023/03/04 04:08:28;;;;;;;17.70;5.88;;;;;;;13.98;100.00;101189.50;2089724;28;20094;-81
2023/03/04 04:09:50;;;;;;;11.90;4.90;;;;;;;13.98;100.00;101210.72;2094382;28;20076;-81
2023/03/04 04:11:12;;;;;;;15.63;4.70;;;;;;;13.98;100.00;101209.88;2087006;28;20056;-81
2023/03/04 04:12:36;;;;;;;12.43;3.95;;;;;;;13.97;100.00;101208.97;2078791;28;20436;-81
2023/03/04 04:13:58;;;;;;;12.80;4.40;;;;;;;13.95;100.00;101208.06;2079196;28;20056;-81
2023/03/04 04:15:20;;;;;;;20.08;4.65;;;;;;;13.96;100.00;101212.50;2092604;28;20055;-81
2023/03/04 04:16:42;;;;;;;12.95;4.10;;;;;;;13.96;100.00;101225.78;2081360;28;20038;-82
2023/03/04 04:18:04;;;;;;;16.17;5.35;;;;;;;13.96;100.00;101223.13;2092418;28;20060;-82
2023/03/04 04:19:27;;;;;;;18.33;4.85;;;;;;;13.94;100.00;101223.09;2089898;28;20775;-81
2023/03/04 04:20:50;;;;;;;12.15;4.07;;;;;;;13.93;100.00;101225.72;2086970;28;20083;-81
2023/03/04 04:22:16;;;;;;;13.20;4.65;;;;;;;13.94;100.00;101231.06;2086984;28;20048;-81
2023/03/04 04:23:37;;;;;;;15.35;5.45;;;;;;;13.96;100.00;101223.13;2087411;28;20045;-82
2023/03/04 04:25:00;;;;;;;13.05;4.72;;;;;;;13.98;100.00;101231.97;2086820;28;20084;-82
2023/03/04 04:26:21;;;;;;;14.80;5.18;;;;;;;13.98;100.00;101227.56;2087305;28;20053;-81
2023/03/04 04:27:45;;;;;;;15.43;4.82;;;;;;;14.00;100.00;101224.91;2086951;28;20485;-81
2023/03/04 04:29:07;;;;;;;17.83;4.95;;;;;;;14.00;100.00;101227.56;2086459;28;20060;-81
2023/03/04 04:30:29;;;;;;;13.27;4.85;;;;;;;14.02;100.00;101224.94;2089798;28;20048;-81
2023/03/04 04:31:50;;;;;;;11.98;4.70;;;;;;;14.02;100.00;101216.97;2087070;28;20516;-81
2023/03/04 04:33:13;;;;;;;12.65;4.57;;;;;;;14.03;100.00;101224.97;2086729;28;20088;-81
2023/03/04 04:34:35;;;;;;;18.17;4.65;;;;;;;14.05;100.00;101217.88;2086959;28;20053;-80
2023/03/04 04:35:58;;;;;;;12.05;4.75;;;;;;;14.06;100.00;101224.06;2078376;28;20041;-81
2023/03/04 04:37:20;;;;;;;14.82;5.28;;;;;;;14.09;100.00;101226.78;2092584;28;20063;-81
2023/03/04 04:38:41;;;;;;;13.07;4.55;;;;;;;14.12;100.00;101219.72;2089682;28;20045;-81
2023/03/04 04:40:04;;;;;;;17.60;5.85;;;;;;;14.14;100.00;101228.59;2086802;28;20056;-81
2023/03/04 04:41:29;;;;;;;12.75;4.78;;;;;;;14.17;100.00;101222.44;2078628;28;20062;-80
2023/03/04 04:42:53;;;;;;;11.43;4.22;;;;;;;14.18;100.00;101225.06;2085098;28;20045;-80
2023/03/04 04:44:16;;;;;;;16.13;5.50;;;;;;;14.20;100.00;101219.78;2086779;28;20040;-80
2023/03/04 04:45:37;;;;;;;11.68;4.60;;;;;;;14.23;100.00;101217.16;2095044;28;20464;-81
2023/03/04 04:46:59;;;;;;;9.32;4.25;;;;;;;14.24;100.00;101217.16;2089547;28;20041;-79
2023/03/04 04:48:20;;;;;;;16.02;5.22;;;;;;;14.26;100.00;101219.81;2086407;28;20065;-79
2023/03/04 04:49:43;;;;;;;16.58;4.30;;;;;;;14.28;100.00;101218.97;2088665;28;20116;-79
2023/03/04 04:51:04;;;;;;;11.98;4.88;;;;;;;14.33;100.00;101227.84;2085741;28;20098;-79
2023/03/04 04:52:27;;;;;;;18.23;5.78;;;;;;;14.35;100.00;101222.56;2084577;28;20136;-83
2023/03/04 04:53:48;;;;;;;12.63;3.72;;;;;;;14.35;100.00;101218.16;2088286;28;20480;-83
2023/03/04 04:55:11;;;;;;;13.07;4.32;;;;;;;14.37;100.00;101226.13;2094312;28;20048;-82
2023/03/04 04:56:33;;;;;;;15.80;5.00;;;;;;;14.39;100.00;101213.75;2089061;28;20049;-82
2023/03/04 04:57:56;;;;;;;11.55;5.10;;;;;;;14.42;100.00;101215.56;2086345;28;20033;-81
2023/03/04 04:59:18;;;;;;;12.32;3.97;;;;;;;14.43;100.00;101222.66;2086796;28;20052;-83
2023/03/04 05:00:40;;;;;;;11.80;4.50;;;;;;;14.47;100.00;101217.38;2086277;28;20120;-81
2023/03/04 05:02:02;;;;;;;15.60;4.78;;;;;;;14.51;100.00;101215.59;2083353;28;20041;-80
2023/03/04 05:03:24;;;;;;;16.42;5.45;;;;;;;14.55;100.00;101217.44;2083882;28;20041;-81
2023/03/04 05:04:46;;;;;;;13.18;4.90;;;;;;;14.57;100.00;101218.34;2083715;28;20390;-81
2023/03/04 05:06:10;;;;;;;13.90;4.50;;;;;;;14.61;100.00;101228.09;2092505;28;20052;-81
2023/03/04 05:07:32;;;;;;;14.85;4.78;;;;;;;14.64;100.00;101225.44;2095087;28;20049;-81
2023/03/04 05:08:54;;;;;;;12.85;4.15;;;;;;;14.67;100.00;101230.78;2094989;28;20059;-82
2023/03/04 05:10:17;;;;;;;13.55;4.45;;;;;;;14.72;100.00;101223.72;2094869;28;20053;-81
2023/03/04 05:11:39;;;;;;;11.13;4.07;;;;;;;14.75;100.00;101219.34;2070247;28;20145;-81
2023/03/04 05:13:02;;;;;;;19.05;4.28;;;;;;;14.78;100.00;101205.16;2070231;28;20474;-82
2023/03/04 05:14:24;;;;;;;15.00;5.35;;;;;;;14.82;100.00;101214.06;2070487;28;20049;-82
2023/03/04 05:15:46;;;;;;;13.77;4.43;;;;;;;14.84;100.00;101215.81;2070173;28;20425;-80
2023/03/04 05:17:08;;;;;;;14.55;4.97;;;;;;;14.87;100.00;101214.97;2069585;28;20060;-80
2023/03/04 05:18:30;;;;;;;11.70;4.47;;;;;;;14.92;100.00;101226.50;2061981;28;20072;-81
2023/03/04 05:19:52;;;;;;;12.35;4.07;;;;;;;14.96;100.00;101238.94;2067381;28;20038;-81
2023/03/04 05:21:14;;;;;;;19.33;4.40;;;;;;;14.99;100.00;101242.50;2070208;28;20104;-80
2023/03/04 05:22:37;;;;;;;13.68;4.97;;;;;;;15.02;100.00;101244.28;2062113;28;20049;-81
2023/03/04 05:23:59;;;;;;;12.95;4.30;;;;;;;15.06;100.00;101248.72;2061230;28;20068;-80
2023/03/04 05:25:20;;;;;;;18.02;4.93;;;;;;;15.08;100.00;101255.84;2066673;28;20049;-80
2023/03/04 05:26:43;;;;;;;9.65;3.63;;;;;;;15.09;100.00;101262.94;2070233;28;20042;-80
2023/03/04 05:28:11;;;;;;;14.38;4.72;;;;;;;15.09;100.00;101262.06;2064502;28;20034;-81
2023/03/04 05:29:33;;;;;;;14.98;4.68;;;;;;;15.09;100.00;101270.94;2070421;28;20559;-81
2023/03/04 05:30:54;;;;;;;19.77;5.10;;;;;;;15.10;100.00;101269.13;2078362;28;20042;-80
2023/03/04 05:32:17;;;;;;;14.13;4.20;;;;;;;15.09;100.00;101270.03;2064057;28;20108;-81
2023/03/04 05:33:39;;;;;;;12.65;4.60;;;;;;;15.10;100.00;101279.75;2061748;28;20046;-81
2023/03/04 05:35:02;;;;;;;21.50;5.07;;;;;;;15.11;100.00;101282.44;2067824;28;20109;-81
2023/03/04 05:36:24;;;;;;;15.38;4.82;;;;;;;15.12;100.00;101286.88;2078290;28;20053;-82
2023/03/04 05:37:46;;;;;;;17.00;5.20;;;;;;;15.14;100.00;101286.91;2072471;28;20041;-81
2023/03/04 05:39:09;;;;;;;13.55;4.38;;;;;;;15.15;100.00;101300.22;2070112;28;20038;-81
2023/03/04 05:40:31;;;;;;;13.05;4.72;;;;;;;15.15;100.00;101297.56;2069644;28;20117;-81
2023/03/04 05:41:53;;;;;;;16.70;4.38;;;;;;;15.18;100.00;101303.75;2070181;28;20073;-81
2023/03/04 05:43:16;;;;;;;20.48;5.22;;;;;;;15.18;100.00;101309.97;2072723;28;20064;-81
2023/03/04 05:44:38;;;;;;;14.00;3.90;;;;;;;15.18;100.00;101309.97;2069991;28;20084;-81
2023/03/04 05:46:01;;;;;;;15.05;4.88;;;;;;;15.19;100.00;101318.84;2077212;28;20084;-80
2023/03/04 05:47:22;;;;;;;12.32;4.80;;;;;;;15.22;100.00;101316.19;2080854;28;20490;-81
2023/03/04 05:48:45;;;;;;;8.85;4.68;;;;;;;15.22;100.00;101319.75;2072361;28;20077;-80
2023/03/04 05:50:07;;;;;;;14.38;5.25;;;;;;;15.25;100.00;101327.72;2077558;28;20052;-81
2023/03/04 05:51:30;;;;;;;14.88;4.40;;;;;;;15.27;100.00;101325.97;2072671;28;20081;-81
2023/03/04 05:52:52;;;;;;;17.52;4.53;;;;;;;15.30;100.00;101318.00;2077895;28;20053;-81
2023/03/04 05:54:15;;;;;;;14.20;4.85;;;;;;;15.33;100.00;101322.47;2072372;28;20046;-82
2023/03/04 05:55:37;;;;;;;16.20;4.72;;;;;;;15.36;100.00;101330.47;2078242;28;20121;-81
2023/03/04 05:56:58;;;;;;;16.35;5.15;;;;;;;15.37;100.00;101333.13;2072308;28;20050;-82
2023/03/04 05:58:22;;;;;;;18.60;4.38;;;;;;;15.39;100.00;101339.34;2069860;28;20063;-81
2023/03/04 05:59:45;;;;;;;19.58;5.55;;;;;;;15.41;100.00;101347.34;2070256;28;20045;-80
2023/03/04 06:01:08;;;;;;;21.80;10.00;;;;;;;15.42;100.00;101359.78;2069862;28;20050;-82
2023/03/04 06:02:31;;;;;;;22.40;6.30;;;;;;;15.44;100.00;101369.53;2078193;28;20585;-81
2023/03/04 06:03:53;;;;;;;20.63;6.00;;;;;;;15.44;100.00;101366.84;2072787;28;20042;-82
2023/03/04 06:05:16;;;;;;;14.50;6.10;;;;;;;15.46;100.00;101356.22;2069907;28;20054;-82
2023/03/04 06:06:38;;;;;;;14.77;4.43;;;;;;;15.47;100.00;101360.66;2069969;28;20049;-81
2023/03/04 06:08:01;;;;;;;17.60;4.68;;;;;;;15.45;100.00;101350.00;2070064;28;20061;-81
2023/03/04 06:09:23;;;;;;;16.63;4.95;;;;;;;15.45;100.00;101359.75;2069949;28;20050;-81
2023/03/04 06:10:45;;;;;;;12.05;3.78;;;;;;;15.44;100.00;101350.00;2089850;28;20044;-81
2023/03/04 06:12:08;;;;;;;13.45;4.65;;;;;;;15.43;100.00;101345.56;2096995;28;20067;-82
2023/03/04 06:13:31;;;;;;;11.57;3.70;;;;;;;15.43;100.00;101343.78;2086254;28;20083;-82
2023/03/04 06:14:53;;;;;;;10.85;3.53;;;;;;;15.43;100.00;101358.84;2092019;28;20068;-82